createdAt,value
2023-02-25T00:00:06.404Z,9.68
2023-02-25T00:05:14.304Z,9.37
2023-02-25T00:10:16.228Z,9.18
2023-02-25T00:15:17.746Z,8.92
2023-02-25T00:20:19.336Z,8.87
2023-02-25T00:25:20.835Z,8.80
2023-02-25T00:30:22.334Z,8.60
2023-02-25T00:35:23.856Z,8.61
2023-02-25T00:40:25.397Z,8.70
2023-02-25T00:45:26.869Z,8.54
2023-02-25T00:50:28.366Z,8.57
2023-02-25T00:55:29.819Z,8.68
2023-02-25T01:00:35.946Z,8.28
2023-02-25T01:05:42.280Z,8.53
2023-02-25T01:10:44.017Z,8.66
2023-02-25T01:15:45.597Z,8.47
2023-02-25T01:20:47.190Z,8.50
2023-02-25T01:25:48.708Z,8.44
2023-02-25T01:30:50.358Z,8.44
2023-02-25T01:35:54.010Z,8.44
2023-02-25T01:40:59.679Z,8.37
2023-02-25T01:46:01.505Z,8.55
2023-02-25T01:51:07.802Z,8.48
2023-02-25T01:56:12.008Z,8.60
2023-02-25T02:01:16.827Z,8.60
2023-02-25T02:06:26.300Z,8.45
2023-02-25T02:11:27.768Z,8.35
2023-02-25T02:16:45.420Z,8.22
2023-02-25T02:22:00.172Z,7.98
2023-02-25T02:27:10.101Z,8.20
2023-02-25T02:32:23.889Z,8.12
2023-02-25T02:38:12.745Z,8.15
2023-02-25T02:43:52.644Z,8.24
2023-02-25T02:49:12.369Z,7.78
2023-02-25T02:54:15.358Z,7.86
2023-02-25T02:59:37.897Z,7.83
2023-02-25T03:04:42.998Z,8.08
2023-02-25T03:09:50.200Z,8.07
2023-02-25T03:14:52.012Z,8.05
2023-02-25T03:20:15.476Z,8.16
2023-02-25T03:25:22.227Z,8.06
2023-02-25T03:31:07.267Z,8.02
2023-02-25T03:36:15.788Z,8.02
2023-02-25T03:41:19.155Z,8.01
2023-02-25T03:46:22.605Z,7.92
2023-02-25T03:51:30.981Z,7.99
2023-02-25T03:56:42.536Z,7.96
2023-02-25T04:01:48.400Z,7.86
2023-02-25T04:06:49.942Z,7.78
2023-02-25T04:11:51.711Z,7.51
2023-02-25T04:16:53.253Z,7.14
2023-02-25T04:21:54.855Z,7.06
2023-02-25T04:26:56.366Z,6.99
2023-02-25T04:31:58.078Z,7.02
2023-02-25T04:36:59.673Z,7.03
2023-02-25T04:42:01.339Z,7.05
2023-02-25T04:47:03.269Z,7.00
2023-02-25T04:52:04.741Z,6.75
2023-02-25T04:57:07.693Z,6.63
2023-02-25T05:02:09.652Z,6.78
2023-02-25T05:07:11.234Z,6.97
2023-02-25T05:12:12.697Z,6.37
2023-02-25T05:17:14.161Z,6.77
2023-02-25T05:22:15.689Z,6.36
2023-02-25T05:27:17.380Z,6.73
2023-02-25T05:32:19.019Z,6.95
2023-02-25T05:37:20.545Z,6.95
2023-02-25T05:42:22.051Z,6.91
2023-02-25T05:47:23.566Z,6.67
2023-02-25T05:52:25.346Z,6.81
2023-02-25T05:57:26.845Z,6.77
2023-02-25T06:02:28.526Z,6.87
2023-02-25T06:07:31.114Z,6.86
2023-02-25T06:12:33.836Z,6.99
2023-02-25T06:17:35.380Z,6.97
2023-02-25T06:22:36.870Z,7.12
2023-02-25T06:27:38.309Z,7.11
2023-02-25T06:32:39.898Z,6.95
2023-02-25T06:37:41.462Z,7.13
2023-02-25T06:42:42.959Z,6.75
2023-02-25T06:47:44.433Z,6.69
2023-02-25T06:52:45.982Z,6.98
2023-02-25T06:57:47.437Z,7.11
2023-02-25T07:02:48.960Z,7.10
2023-02-25T07:07:50.401Z,7.14
2023-02-25T07:12:52.524Z,7.13
2023-02-25T07:17:54.148Z,7.26
2023-02-25T07:22:55.784Z,7.33
2023-02-25T07:27:57.293Z,7.30
2023-02-25T07:32:58.832Z,7.36
2023-02-25T07:38:00.819Z,7.45
2023-02-25T07:43:02.245Z,7.58
2023-02-25T07:48:03.880Z,7.47
2023-02-25T07:53:05.394Z,7.52
2023-02-25T07:58:07.556Z,7.75
2023-02-25T08:03:09.131Z,7.69
2023-02-25T08:08:10.580Z,7.67
2023-02-25T08:13:12.107Z,7.68
2023-02-25T08:18:13.699Z,7.65
2023-02-25T08:23:15.232Z,7.65
2023-02-25T08:28:16.724Z,7.64
2023-02-25T08:33:18.382Z,7.65
2023-02-25T08:38:19.839Z,7.63
2023-02-25T08:43:21.274Z,7.63
2023-02-25T08:48:22.918Z,7.70
2023-02-25T08:53:24.392Z,7.72
2023-02-25T08:58:25.816Z,7.83
2023-02-25T09:03:27.448Z,7.84
2023-02-25T09:08:28.967Z,7.69
2023-02-25T09:13:30.462Z,7.92
2023-02-25T09:18:31.928Z,7.61
2023-02-25T09:23:33.362Z,7.54
2023-02-25T09:28:35.277Z,7.78
2023-02-25T09:33:37.730Z,7.81
2023-02-25T09:38:41.074Z,7.72
2023-02-25T09:43:42.985Z,7.85
2023-02-25T09:49:07.952Z,7.80
2023-02-25T09:54:20.677Z,7.85
2023-02-25T09:59:22.271Z,7.72
2023-02-25T10:04:31.010Z,7.67
2023-02-25T10:09:52.674Z,7.67
2023-02-25T10:15:12.878Z,7.69
2023-02-25T10:20:17.239Z,7.70
2023-02-25T10:25:25.754Z,7.77
2023-02-25T10:30:49.047Z,7.86
2023-02-25T10:36:01.890Z,7.66
2023-02-25T10:41:05.393Z,7.80
2023-02-25T10:46:19.578Z,7.57
2023-02-25T10:51:21.244Z,7.34
2023-02-25T10:56:25.692Z,7.35
2023-02-25T11:01:36.474Z,7.51
2023-02-25T11:06:40.029Z,7.43
2023-02-25T11:11:52.495Z,7.30
2023-02-25T11:17:08.238Z,7.29
2023-02-25T11:22:28.209Z,7.65
2023-02-25T11:27:41.383Z,7.44
2023-02-25T11:32:45.493Z,7.44
2023-02-25T11:37:47.581Z,7.47
2023-02-25T11:43:16.211Z,7.64
2023-02-25T11:48:48.854Z,7.62
2023-02-25T11:54:21.352Z,7.68
2023-02-25T11:59:43.520Z,7.61
2023-02-25T12:04:53.835Z,7.55
2023-02-25T12:10:04.459Z,7.57
2023-02-25T12:15:42.691Z,7.66
2023-02-25T12:21:22.112Z,7.62
2023-02-25T12:27:09.461Z,7.45
2023-02-25T12:32:10.915Z,7.28
2023-02-25T12:37:29.782Z,7.33
2023-02-25T12:42:57.034Z,7.52
2023-02-25T12:48:33.470Z,7.45
2023-02-25T12:53:40.891Z,7.23
2023-02-25T12:58:55.142Z,7.28
2023-02-25T13:04:24.347Z,7.27
2023-02-25T13:09:50.824Z,7.11
2023-02-25T13:15:12.308Z,6.96
2023-02-25T13:20:29.672Z,7.09
2023-02-25T13:25:56.766Z,7.17
2023-02-25T13:31:08.116Z,7.10
2023-02-25T13:36:31.352Z,7.12
2023-02-25T13:42:10.571Z,7.12
2023-02-25T13:47:17.782Z,7.08
2023-02-25T13:52:25.323Z,7.10
2023-02-25T13:57:26.721Z,7.10
2023-02-25T14:02:40.295Z,7.28
2023-02-25T14:07:54.745Z,7.28
2023-02-25T14:13:17.540Z,7.20
2023-02-25T14:18:58.157Z,7.27
2023-02-25T14:24:31.496Z,7.34
2023-02-25T14:29:46.755Z,7.07
2023-02-25T14:35:15.637Z,7.17
2023-02-25T14:40:28.392Z,6.97
2023-02-25T14:45:39.673Z,7.09
2023-02-25T14:50:59.831Z,7.27
2023-02-25T14:56:13.258Z,7.28
2023-02-25T15:01:17.771Z,7.35
2023-02-25T15:06:53.378Z,7.39
2023-02-25T15:12:00.608Z,7.19
2023-02-25T15:17:37.470Z,7.20
2023-02-25T15:22:53.848Z,7.26
2023-02-25T15:27:56.773Z,7.23
2023-02-25T15:33:16.852Z,7.27
2023-02-25T15:38:20.472Z,7.25
2023-02-25T15:43:21.849Z,7.03
2023-02-25T15:48:31.453Z,6.94
2023-02-25T15:53:37.009Z,6.98
2023-02-25T15:58:44.004Z,7.09
2023-02-25T16:03:45.603Z,6.82
2023-02-25T16:08:54.797Z,6.63
2023-02-25T16:13:58.019Z,6.79
2023-02-25T16:19:01.903Z,6.83
2023-02-25T16:24:11.398Z,6.89
2023-02-25T16:29:25.024Z,6.98
2023-02-25T16:34:34.148Z,6.75
2023-02-25T16:39:37.437Z,6.88
2023-02-25T16:44:40.824Z,6.87
2023-02-25T16:49:46.581Z,6.79
2023-02-25T16:54:55.342Z,6.79
2023-02-25T17:00:16.986Z,6.77
2023-02-25T17:05:26.192Z,6.92
2023-02-25T17:10:42.107Z,6.85
2023-02-25T17:15:43.797Z,6.72
2023-02-25T17:20:45.560Z,6.85
2023-02-25T17:25:48.911Z,6.67
2023-02-25T17:30:50.888Z,6.59
2023-02-25T17:35:57.983Z,6.85
2023-02-25T17:40:59.633Z,6.52
2023-02-25T17:46:13.988Z,6.35
2023-02-25T17:51:15.843Z,6.54
2023-02-25T17:56:17.232Z,6.30
2023-02-25T18:01:25.551Z,6.15
2023-02-25T18:06:41.633Z,6.08
2023-02-25T18:11:43.170Z,6.08
2023-02-25T18:16:44.744Z,6.31
2023-02-25T18:21:46.306Z,5.87
2023-02-25T18:27:01.401Z,6.22
2023-02-25T18:32:03.008Z,5.98
2023-02-25T18:37:04.595Z,6.23
2023-02-25T18:42:06.068Z,6.06
2023-02-25T18:47:07.558Z,6.36
2023-02-25T18:52:21.414Z,6.56
2023-02-25T18:57:26.029Z,6.49
2023-02-25T19:02:31.867Z,6.47
2023-02-25T19:07:34.787Z,6.40
2023-02-25T19:12:36.390Z,6.39
2023-02-25T19:17:37.839Z,6.27
2023-02-25T19:22:43.633Z,6.31
2023-02-25T19:27:45.185Z,6.35
2023-02-25T19:32:46.640Z,6.28
2023-02-25T19:37:48.346Z,6.17
2023-02-25T19:42:49.782Z,6.28
2023-02-25T19:47:51.806Z,6.12
2023-02-25T19:52:54.305Z,6.01
2023-02-25T19:57:55.828Z,5.97
2023-02-25T20:02:57.335Z,5.98
2023-02-25T20:07:58.771Z,5.81
2023-02-25T20:13:00.222Z,5.81
2023-02-25T20:18:01.649Z,5.83
2023-02-25T20:23:03.100Z,5.80
2023-02-25T20:28:04.753Z,5.65
2023-02-25T20:33:06.257Z,5.60
2023-02-25T20:38:30.260Z,5.52
2023-02-25T20:43:31.941Z,5.37
2023-02-25T20:48:33.561Z,5.37
2023-02-25T20:53:35.206Z,5.29
2023-02-25T20:58:36.658Z,5.10
2023-02-25T21:03:38.162Z,5.16
2023-02-25T21:08:40.114Z,4.94
2023-02-25T21:13:41.607Z,4.89
2023-02-25T21:18:43.952Z,4.95
2023-02-25T21:23:45.971Z,4.72
2023-02-25T21:28:47.420Z,4.70
2023-02-25T21:33:48.876Z,4.48
2023-02-25T21:38:50.326Z,4.61
2023-02-25T21:43:52.695Z,4.66
2023-02-25T21:48:56.141Z,4.61
2023-02-25T21:53:59.251Z,4.72
2023-02-25T21:59:03.063Z,4.89
2023-02-25T22:04:05.155Z,4.95
2023-02-25T22:09:06.763Z,5.00
2023-02-25T22:14:09.206Z,5.22
2023-02-25T22:19:10.735Z,5.15
2023-02-25T22:24:12.213Z,5.29
2023-02-25T22:29:14.106Z,5.15
2023-02-25T22:34:15.632Z,5.08
2023-02-25T22:39:17.148Z,5.03
2023-02-25T22:44:18.640Z,5.10
2023-02-25T22:49:20.284Z,5.11
2023-02-25T22:54:21.782Z,5.11
2023-02-25T22:59:23.287Z,4.99
2023-02-25T23:04:25.098Z,4.87
2023-02-25T23:09:26.665Z,4.84
2023-02-25T23:14:28.132Z,4.81
2023-02-25T23:19:29.671Z,4.87
2023-02-25T23:24:31.332Z,4.74
2023-02-25T23:29:32.856Z,4.51
2023-02-25T23:34:34.396Z,4.33
2023-02-25T23:39:35.845Z,4.22
2023-02-25T23:44:37.602Z,4.08
2023-02-25T23:49:39.230Z,4.01
2023-02-25T23:54:40.838Z,3.97
2023-02-25T23:59:42.476Z,3.92
